Time;durP1;ratioP1;P1;durP2;ratioP2;P2;SDS_P1;SDS_P2;PMS_P1;PMS_P2;Temp;Humidity;BMP_temperature;BMP_pressure;BME280_temperature;BME280_humidity;BME280_pressure;Samples;Min_cycle;Max_cycle;Signal;HPM_P1;HPM_P2
2022/01/22 00:00:00;;;;;;;11.85;3.88;;;77.30;1715.20;;;;;;5073692;28;20055;-68
2022/01/22 00:02:26;;;;;;;11.10;3.53;;;77.30;1715.20;;;;;;5073484;28;20053;-68
2022/01/22 00:04:51;;;;;;;6.85;2.95;;;77.30;1689.60;;;;;;5073576;28;20432;-71
2022/01/22 00:07:17;;;;;;;8.88;3.58;;;77.30;1715.20;;;;;;5070218;28;20029;-69
2022/01/22 00:09:50;;;;;;;7.13;2.72;;;77.40;1715.20;;;;;;5072953;28;20036;-69
2022/01/22 00:12:29;;;;;;;7.45;2.67;;;77.40;1689.60;;;;;;5052621;28;20053;-70
2022/01/22 00:14:55;;;;;;;6.85;3.13;;;77.40;1715.20;;;;;;5053019;28;20031;-70
2022/01/22 00:17:21;;;;;;;6.32;2.92;;;77.40;1715.20;;;;;;5055687;28;20111;-70
2022/01/22 00:19:47;;;;;;;7.53;3.55;;;77.40;1689.60;;;;;;5058295;28;20024;-70
2022/01/22 00:22:13;;;;;;;10.50;3.95;;;77.40;1715.20;;;;;;5053816;28;20025;-70
2022/01/22 00:24:40;;;;;;;12.60;3.50;;;77.40;1689.60;;;;;;5058003;28;20025;-71
2022/01/22 00:27:06;;;;;;;6.50;3.70;;;77.40;1715.20;;;;;;5073456;28;20024;-70
2022/01/22 00:29:32;;;;;;;9.23;3.53;;;77.30;1715.20;;;;;;5071272;28;20028;-69
2022/01/22 00:31:58;;;;;;;13.95;3.65;;;77.50;1689.60;;;;;;5077261;28;20103;-69
2022/01/22 00:34:23;;;;;;;18.23;3.40;;;77.50;1715.20;;;;;;5065497;28;20166;-69
2022/01/22 00:36:49;;;;;;;8.77;3.70;;;77.50;1715.20;;;;;;5064043;28;20056;-69
2022/01/22 00:39:15;;;;;;;10.15;3.10;;;77.50;1689.60;;;;;;5066399;28;20458;-68
2022/01/22 00:41:41;;;;;;;7.32;3.17;;;77.50;1664.00;;;;;;5076231;28;20023;-68
2022/01/22 00:44:07;;;;;;;8.93;3.42;;;77.60;1664.00;;;;;;5058575;28;20029;-68
2022/01/22 00:46:32;;;;;;;7.10;2.83;;;77.60;1664.00;;;;;;5056415;28;20104;-69
2022/01/22 00:48:58;;;;;;;7.25;3.33;;;77.50;1664.00;;;;;;5061891;28;20115;-68
2022/01/22 00:51:24;;;;;;;8.18;2.80;;;77.50;1664.00;;;;;;5064707;28;20028;-69
2022/01/22 00:53:50;;;;;;;7.13;3.22;;;77.60;1638.40;;;;;;5064536;28;20024;-70
2022/01/22 00:56:16;;;;;;;8.68;3.28;;;77.60;1638.40;;;;;;5066863;28;20532;-69
2022/01/22 00:58:42;;;;;;;6.55;2.92;;;77.60;1638.40;;;;;;5067334;28;20045;-68
2022/01/22 01:01:08;;;;;;;7.35;2.90;;;77.60;1612.80;;;;;;5064384;28;20048;-69
2022/01/22 01:03:34;;;;;;;7.25;2.63;;;77.60;1638.40;;;;;;5063312;28;20033;-68
2022/01/22 01:06:02;;;;;;;6.85;3.15;;;77.60;1638.40;;;;;;5058014;28;20071;-69
2022/01/22 01:08:29;;;;;;;8.73;3.50;;;77.60;1612.80;;;;;;5073715;28;20099;-69
2022/01/22 01:10:55;;;;;;;9.02;3.50;;;77.60;1638.40;;;;;;5072306;28;20028;-68
2022/01/22 01:13:22;;;;;;;5.82;3.38;;;77.60;1612.80;;;;;;5059421;28;20025;-67
2022/01/22 01:32:41;;;;;;;9.00;3.40;;;77.40;1638.40;;;;;;5053155;28;20605;-66
2022/01/22 01:35:08;;;;;;;9.57;3.30;;;77.40;1638.40;;;;;;5054123;28;20032;-67
2022/01/22 01:37:34;;;;;;;8.43;2.80;;;77.40;1638.40;;;;;;5054089;28;20119;-67
2022/01/22 01:40:03;;;;;;;4.85;2.88;;;77.50;1638.40;;;;;;5053146;28;20028;-67
2022/01/22 01:45:18;;;;;;;7.80;3.05;;;77.40;1638.40;;;;;;5014022;28;20041;-65
2022/01/22 01:47:47;;;;;;;6.07;2.75;;;77.40;1612.80;;;;;;5014112;28;20026;-66
2022/01/22 01:50:13;;;;;;;5.82;2.63;;;77.50;1612.80;;;;;;5013964;28;20034;-66
2022/01/22 01:53:06;;;;;;;7.15;2.63;;;77.40;1612.80;;;;;;5014180;28;20474;-67
2022/01/22 01:55:36;;;;;;;6.10;2.63;;;77.40;1638.40;;;;;;5000450;28;20089;-66
2022/01/22 01:58:04;;;;;;;7.22;2.58;;;77.40;1638.40;;;;;;4994396;28;20037;-66
2022/01/22 02:00:30;;;;;;;5.65;2.90;;;77.40;1638.40;;;;;;4994336;28;20501;-66
2022/01/22 02:02:58;;;;;;;8.30;2.88;;;77.40;1638.40;;;;;;4994266;28;20065;-66
2022/01/22 02:05:24;;;;;;;6.22;3.17;;;77.40;1638.40;;;;;;4994217;28;20049;-66
2022/01/22 02:07:52;;;;;;;6.85;3.30;;;77.40;1638.40;;;;;;4994245;28;20026;-66
2022/01/22 02:10:22;;;;;;;7.00;3.00;;;77.40;1612.80;;;;;;4994013;28;20038;-66
2022/01/22 02:23:44;;;;;;;5.75;3.15;;;77.40;1638.40;;;;;;5035260;28;20083;-68
2022/01/22 02:26:13;;;;;;;6.93;2.90;;;77.30;1638.40;;;;;;5034895;28;20598;-68
2022/01/22 02:28:40;;;;;;;7.47;2.80;;;77.30;1638.40;;;;;;5035217;28;20054;-70
2022/01/22 02:33:56;;;;;;;4.63;2.63;;;77.30;1638.40;;;;;;5035354;28;20095;-67
2022/01/22 02:39:03;;;;;;;4.95;2.38;;;77.20;1638.40;;;;;;5035108;28;20025;-68
2022/01/22 02:41:29;;;;;;;7.13;2.65;;;77.10;1664.00;;;;;;5034956;28;20478;-68
2022/01/22 02:43:55;;;;;;;6.00;3.30;;;77.00;1638.40;;;;;;5034988;28;20026;-68
2022/01/22 02:46:25;;;;;;;4.32;2.60;;;76.90;1664.00;;;;;;5034839;28;20038;-70
2022/01/22 02:48:54;;;;;;;5.30;2.65;;;76.90;1689.60;;;;;;5034764;28;20033;-64
2022/01/22 02:51:20;;;;;;;10.30;3.15;;;76.80;1664.00;;;;;;5033851;28;20025;-66
2022/01/22 02:53:49;;;;;;;7.80;3.78;;;76.80;1689.60;;;;;;5034875;28;20464;-66
2022/01/22 02:56:15;;;;;;;5.30;2.65;;;52.10;1689.60;;;;;;5034593;28;20013;-65
2022/01/22 02:58:41;;;;;;;5.30;2.45;;;52.10;1664.00;;;;;;5034340;28;20043;-65
2022/01/22 03:01:06;;;;;;;6.78;2.40;;;52.00;1689.60;;;;;;5034673;28;20371;-63
2022/01/22 03:03:32;;;;;;;8.20;3.15;;;52.00;1689.60;;;;;;5034381;28;20029;-65
2022/01/22 03:06:01;;;;;;;8.90;3.25;;;52.00;1664.00;;;;;;5034452;28;20037;-66
2022/01/22 03:08:28;;;;;;;7.50;3.08;;;52.00;1664.00;;;;;;5034291;28;20021;-66
2022/01/22 03:10:55;;;;;;;6.60;3.40;;;52.00;1664.00;;;;;;5034243;28;20030;-63
2022/01/22 03:16:32;;;;;;;5.97;3.25;;;52.00;1664.00;;;;;;5032093;28;20034;-66
2022/01/22 03:19:05;;;;;;;7.35;2.25;;;52.10;1638.40;;;;;;5032224;28;20029;-65
2022/01/22 03:21:54;;;;;;;7.65;3.08;;;52.10;1638.40;;;;;;5032235;28;20034;-63
2022/01/22 03:27:21;;;;;;;11.27;5.78;;;52.10;1689.60;;;;;;5032259;28;20076;-66
2022/01/22 03:29:47;;;;;;;11.80;4.45;;;52.00;1689.60;;;;;;5032131;28;20025;-66
2022/01/22 03:32:13;;;;;;;14.32;6.40;;;52.00;1664.00;;;;;;5031736;28;20036;-66
2022/01/22 03:34:54;;;;;;;12.20;5.90;;;52.00;1664.00;;;;;;5032362;28;20029;-65
2022/01/22 03:37:20;;;;;;;13.90;5.53;;;52.00;1664.00;;;;;;5031845;28;20030;-66
2022/01/22 03:39:46;;;;;;;12.77;5.10;;;52.00;1664.00;;;;;;5031627;28;20079;-65
2022/01/22 03:42:12;;;;;;;11.07;4.50;;;52.00;1664.00;;;;;;5031741;28;20017;-66
2022/01/22 03:44:37;;;;;;;10.40;3.95;;;51.90;1689.60;;;;;;5032273;28;20025;-65
2022/01/22 03:47:04;;;;;;;9.15;3.85;;;52.00;1664.00;;;;;;5015272;28;20403;-65
2022/01/22 03:49:31;;;;;;;7.53;3.63;;;51.90;1664.00;;;;;;5032194;28;20471;-64
2022/01/22 03:51:57;;;;;;;6.53;2.90;;;51.90;1689.60;;;;;;5031568;28;20092;-65
2022/01/22 03:54:23;;;;;;;5.53;2.67;;;52.00;1689.60;;;;;;5033767;28;20065;-64
2022/01/22 03:56:49;;;;;;;9.98;3.47;;;51.90;1664.00;;;;;;5033466;28;20022;-66
2022/01/22 03:59:15;;;;;;;5.40;2.72;;;51.90;1715.20;;;;;;5033399;28;20050;-63
2022/01/22 04:04:21;;;;;;;10.93;3.08;;;51.80;1740.80;;;;;;5034004;28;20463;-65
2022/01/22 04:09:15;;;;;;;8.13;3.15;;;52.00;1715.20;;;;;;5033601;28;20029;-65
2022/01/22 04:11:44;;;;;;;6.72;3.33;;;51.80;1715.20;;;;;;5033375;28;20475;-67
2022/01/22 04:14:17;;;;;;;9.07;3.35;;;51.90;1740.80;;;;;;5033650;28;20030;-70
2022/01/22 04:16:58;;;;;;;13.20;4.43;;;77.00;1868.80;;;;;;5033773;28;20033;-66
2022/01/22 04:24:55;;;;;;;9.23;3.53;;;76.90;1715.20;;;;;;5033572;28;20383;-68
2022/01/22 04:27:27;;;;;;;6.32;3.72;;;76.90;1715.20;;;;;;5033494;28;20025;-67
2022/01/22 04:29:57;;;;;;;12.15;5.97;;;76.80;1689.60;;;;;;5033609;28;20425;-65
2022/01/22 04:32:26;;;;;;;11.15;6.03;;;76.80;1715.20;;;;;;5033584;28;20036;-65
2022/01/22 04:34:53;;;;;;;10.68;5.40;;;76.90;1740.80;;;;;;5033434;28;20383;-63
2022/01/22 04:37:19;;;;;;;10.77;4.25;;;76.90;1689.60;;;;;;5033245;28;20159;-62
2022/01/22 04:39:46;;;;;;;9.38;4.50;;;76.90;1715.20;;;;;;5033013;28;20045;-66
2022/01/22 04:42:12;;;;;;;8.20;4.40;;;76.90;1740.80;;;;;;5033103;28;20383;-63
2022/01/22 04:44:48;;;;;;;8.23;3.85;;;77.00;1715.20;;;;;;5033453;28;20443;-63
2022/01/22 04:47:24;;;;;;;9.65;4.25;;;77.10;1689.60;;;;;;5033418;28;20040;-64
2022/01/22 04:55:01;;;;;;;8.00;4.25;;;76.90;1689.60;;;;;;5033027;28;20471;-66
2022/01/22 04:57:29;;;;;;;11.45;5.45;;;76.90;1715.20;;;;;;5033061;28;20504;-66
2022/01/22 04:59:55;;;;;;;18.73;9.45;;;76.90;1689.60;;;;;;5032075;28;20045;-66
2022/01/22 05:02:21;;;;;;;12.90;6.68;;;76.80;1689.60;;;;;;5033204;28;20033;-68
2022/01/22 05:04:47;;;;;;;15.10;7.18;;;76.90;1715.20;;;;;;5033038;28;20037;-68
2022/01/22 05:07:13;;;;;;;16.88;7.95;;;76.90;1689.60;;;;;;5032887;28;20159;-66
2022/01/22 05:09:38;;;;;;;13.07;6.45;;;76.80;1689.60;;;;;;5033114;28;20022;-67
2022/01/22 05:12:06;;;;;;;11.88;6.35;;;76.80;1715.20;;;;;;5034727;28;20044;-67
2022/01/22 05:14:32;;;;;;;9.95;5.30;;;76.90;1715.20;;;;;;5034051;28;20056;-66
2022/01/22 05:17:01;;;;;;;11.90;5.35;;;76.90;1664.00;;;;;;5036795;28;20025;-66
2022/01/22 05:21:57;;;;;;;11.18;4.88;;;77.00;1715.20;;;;;;5036258;28;20052;-64
2022/01/22 05:24:27;;;;;;;12.80;5.03;;;77.00;1664.00;;;;;;5036339;28;20026;-67
2022/01/22 05:32:25;;;;;;;12.35;6.90;;;77.00;1689.60;;;;;;5036597;28;20037;-65
2022/01/22 05:37:35;;;;;;;11.68;6.97;;;77.20;1715.20;;;;;;5036608;28;20163;-67
2022/01/22 05:40:01;;;;;;;11.30;6.00;;;77.20;1715.20;;;;;;5036451;28;20120;-67
2022/01/22 05:42:28;;;;;;;11.20;5.35;;;77.30;1689.60;;;;;;5036227;28;20083;-65
2022/01/22 05:44:54;;;;;;;7.30;4.78;;;77.30;1715.20;;;;;;5035467;28;20032;-65
2022/01/22 05:47:23;;;;;;;11.93;5.47;;;77.30;1689.60;;;;;;5035985;28;20030;-67
2022/01/22 05:49:49;;;;;;;8.63;4.30;;;77.40;1689.60;;;;;;5036010;28;20025;-64
2022/01/22 05:52:22;;;;;;;9.57;4.50;;;77.40;1664.00;;;;;;5035700;28;20053;-66
2022/01/22 05:55:09;;;;;;;9.30;5.40;;;77.40;1664.00;;;;;;5035940;28;20101;-65
2022/01/22 06:00:19;;;;;;;10.38;5.43;;;77.40;1664.00;;;;;;5035731;28;20111;-65
2022/01/22 06:02:45;;;;;;;8.02;4.80;;;77.40;1638.40;;;;;;5035926;28;20101;-67
2022/01/22 06:05:11;;;;;;;17.80;5.80;;;77.50;1843.20;;;;;;5035860;28;20126;-66
2022/01/22 06:07:36;;;;;;;16.73;6.65;;;77.60;1689.60;;;;;;5035635;28;20478;-65
2022/01/22 06:10:15;;;;;;;13.65;5.60;;;77.50;1664.00;;;;;;5035975;28;20029;-66
2022/01/22 06:12:57;;;;;;;11.90;5.97;;;77.50;1664.00;;;;;;5035652;28;20042;-66
2022/01/22 06:15:23;;;;;;;150.38;32.85;;;77.50;1638.40;;;;;;5035546;28;20041;-66
2022/01/22 06:17:49;;;;;;;18.45;7.55;;;102.40;1843.20;;;;;;5035521;28;20028;-65
2022/01/22 06:20:16;;;;;;;13.55;6.30;;;102.50;1638.40;;;;;;5035605;28;20029;-70
2022/01/22 06:22:42;;;;;;;13.07;6.82;;;102.40;1612.80;;;;;;5035471;28;20033;-65
2022/01/22 06:25:09;;;;;;;21.75;9.60;;;102.40;1612.80;;;;;;5035103;28;20038;-65
2022/01/22 06:27:35;;;;;;;26.08;10.82;;;102.40;1612.80;;;;;;5035308;28;20068;-65
2022/01/22 06:30:01;;;;;;;21.92;9.85;;;102.40;1612.80;;;;;;5067307;28;20037;-65
2022/01/22 06:32:27;;;;;;;18.08;8.73;;;77.70;1612.80;;;;;;5035284;28;20391;-65
2022/01/22 06:34:52;;;;;;;16.50;7.32;;;77.70;1612.80;;;;;;5035332;28;20029;-65
2022/01/22 06:37:18;;;;;;;20.23;7.40;;;77.70;1612.80;;;;;;5035216;28;20448;-65
2022/01/22 06:42:31;;;;;;;31.17;10.45;;;77.60;1612.80;;;;;;5035297;28;20029;-64
2022/01/22 06:44:58;;;;;;;19.13;6.65;;;77.60;1740.80;;;;;;5035015;28;20029;-64
2022/01/22 06:47:25;;;;;;;22.58;7.47;;;77.70;1689.60;;;;;;5035005;28;20060;-65
2022/01/22 06:49:51;;;;;;;14.43;7.07;;;102.40;1664.00;;;;;;5034961;28;20028;-65
2022/01/22 06:52:17;;;;;;;19.80;8.80;;;77.70;1664.00;;;;;;5034958;28;20104;-68
2022/01/22 06:54:43;;;;;;;21.90;10.68;;;77.70;1689.60;;;;;;5034704;28;20108;-67
2022/01/22 06:57:10;;;;;;;19.23;8.85;;;77.60;1689.60;;;;;;5034651;28;20056;-68
2022/01/22 06:59:36;;;;;;;15.07;6.32;;;77.70;1689.60;;;;;;5034408;28;20041;-67
2022/01/22 07:02:02;;;;;;;16.60;7.20;;;77.60;1689.60;;;;;;5034484;28;20152;-66
2022/01/22 07:04:31;;;;;;;14.43;7.25;;;77.60;1715.20;;;;;;5049777;28;20502;-66
2022/01/22 07:06:57;;;;;;;16.02;8.20;;;77.60;1766.40;;;;;;5059769;28;20101;-65
2022/01/22 07:09:23;;;;;;;18.30;8.65;;;77.60;1766.40;;;;;;5063142;28;20067;-68
2022/01/22 07:11:49;;;;;;;16.00;8.77;;;77.60;1766.40;;;;;;5066758;28;20063;-66
2022/01/22 07:14:16;;;;;;;18.63;9.13;;;77.60;1766.40;;;;;;5074025;28;20017;-67
2022/01/22 07:16:42;;;;;;;18.33;7.75;;;77.60;1792.00;;;;;;5074392;28;20020;-67
2022/01/22 07:19:08;;;;;;;15.80;8.13;;;77.60;1766.40;;;;;;5073971;28;20031;-65
2022/01/22 07:21:36;;;;;;;15.57;8.40;;;77.50;1792.00;;;;;;5074101;28;20078;-65
2022/01/22 07:26:29;;;;;;;21.15;10.43;;;77.50;1817.60;;;;;;5073501;28;20115;-62
2022/01/22 07:28:56;;;;;;;18.52;10.45;;;77.40;1817.60;;;;;;5073979;28;20035;-61
2022/01/22 07:31:23;;;;;;;14.50;8.18;;;77.40;1843.20;;;;;;5074113;28;20055;-62
2022/01/22 07:33:49;;;;;;;22.05;9.13;;;77.40;1817.60;;;;;;5074271;28;20090;-62
2022/01/22 07:36:15;;;;;;;14.70;7.65;;;77.40;1843.20;;;;;;5074006;28;20459;-62
2022/01/22 07:38:41;;;;;;;14.75;7.35;;;77.50;1843.20;;;;;;5073323;28;20374;-62
2022/01/22 07:41:07;;;;;;;13.13;7.40;;;77.40;1843.20;;;;;;5074023;28;20036;-62
2022/01/22 07:43:34;;;;;;;18.08;7.47;;;77.50;1843.20;;;;;;5073825;28;20107;-63
2022/01/22 07:46:00;;;;;;;19.58;8.52;;;77.50;1817.60;;;;;;5074104;28;20054;-63
2022/01/22 07:48:25;;;;;;;15.35;8.70;;;77.40;1843.20;;;;;;5073829;28;20464;-62
2022/01/22 07:50:51;;;;;;;14.18;7.50;;;77.40;1817.60;;;;;;5073814;28;20024;-63
2022/01/22 07:53:17;;;;;;;15.48;7.95;;;77.40;1843.20;;;;;;5073927;28;20461;-62
2022/01/22 07:55:43;;;;;;;16.63;8.90;;;77.40;1843.20;;;;;;5073730;28;20024;-62
2022/01/22 07:58:10;;;;;;;13.35;8.57;;;77.40;1868.80;;;;;;5073766;28;20472;-63
2022/01/22 08:00:35;;;;;;;23.70;9.05;;;77.40;1868.80;;;;;;5073530;28;20032;-62
2022/01/22 08:03:01;;;;;;;14.43;8.45;;;77.40;1894.40;;;;;;5073726;28;20485;-62
2022/01/22 08:05:27;;;;;;;24.95;10.40;;;77.30;1894.40;;;;;;5071988;28;20448;-61
2022/01/22 08:07:53;;;;;;;21.90;11.35;;;77.30;1894.40;;;;;;5073432;28;20077;-61
2022/01/22 08:10:19;;;;;;;22.05;10.95;;;77.30;1920.00;;;;;;5073672;28;20032;-61
2022/01/22 08:12:48;;;;;;;14.88;9.20;;;77.30;1894.40;;;;;;5073275;28;20021;-61
2022/01/22 08:15:15;;;;;;;16.25;8.10;;;77.40;1894.40;;;;;;5073486;28;20036;-61
2022/01/22 08:17:41;;;;;;;14.88;8.25;;;77.40;1894.40;;;;;;5073578;28;20017;-62
2022/01/22 08:20:07;;;;;;;26.05;9.20;;;77.40;1868.80;;;;;;5073371;28;20355;-60
2022/01/22 08:22:34;;;;;;;18.58;9.48;;;77.40;1868.80;;;;;;5073380;28;20456;-62
2022/01/22 08:25:01;;;;;;;15.57;8.25;;;77.40;2048.00;;;;;;5073218;28;20108;-69
2022/01/22 08:29:53;;;;;;;12.93;7.07;;;77.50;1996.80;;;;;;5073472;28;20128;-64
2022/01/22 08:37:45;;;;;;;16.85;7.07;;;77.30;1971.20;;;;;;5073488;28;20040;-63
2022/01/22 08:40:11;;;;;;;13.85;8.18;;;77.30;1971.20;;;;;;5073318;28;20029;-69
2022/01/22 08:42:37;;;;;;;13.55;8.25;;;77.30;1971.20;;;;;;5073479;28;20033;-63
2022/01/22 08:45:04;;;;;;;12.32;6.90;;;77.30;1920.00;;;;;;5073175;28;20130;-63
2022/01/22 08:47:30;;;;;;;12.10;8.18;;;77.30;1971.20;;;;;;5073281;28;20067;-64
2022/01/22 08:49:56;;;;;;;14.13;9.52;;;77.30;1971.20;;;;;;5074876;28;20580;-63
2022/01/22 08:52:26;;;;;;;17.33;11.23;;;77.30;1920.00;;;;;;5076600;28;20025;-63
2022/01/22 08:54:52;;;;;;;17.92;10.85;;;77.30;1971.20;;;;;;5077197;28;20096;-63
2022/01/22 08:57:18;;;;;;;16.23;9.73;;;77.30;1971.20;;;;;;5076837;28;20117;-63
2022/01/22 08:59:44;;;;;;;16.55;8.95;;;77.20;1920.00;;;;;;5076762;28;20457;-63
2022/01/22 09:02:11;;;;;;;16.80;8.45;;;77.20;1945.60;;;;;;5076935;28;20025;-64
2022/01/22 09:04:36;;;;;;;14.95;8.35;;;77.30;1996.80;;;;;;5076838;28;20074;-63
2022/01/22 09:07:03;;;;;;;18.27;10.40;;;77.30;1971.20;;;;;;5076907;28;20037;-63
2022/01/22 09:09:29;;;;;;;24.05;11.45;;;77.40;1920.00;;;;;;5075438;28;20024;-63
2022/01/22 09:11:55;;;;;;;19.90;10.98;;;77.40;1971.20;;;;;;5076659;28;20051;-64
2022/01/22 09:14:21;;;;;;;18.73;10.57;;;77.50;1945.60;;;;;;5075971;28;20119;-63
2022/01/22 09:16:51;;;;;;;36.25;20.42;;;77.50;1920.00;;;;;;5077109;28;20029;-66
2022/01/22 09:19:18;;;;;;;64.75;29.23;;;77.50;1868.80;;;;;;5076535;28;20020;-63
2022/01/22 09:21:46;;;;;;;132.68;60.03;;;77.40;1971.20;;;;;;5076733;28;20063;-63
2022/01/22 09:24:15;;;;;;;166.75;72.07;;;77.40;1945.60;;;;;;5076603;28;20367;-63
2022/01/22 09:26:41;;;;;;;162.07;71.45;;;77.30;1920.00;;;;;;5076109;28;20040;-72
2022/01/22 09:29:07;;;;;;;69.25;35.72;;;77.30;1920.00;;;;;;5076043;28;20107;-63
2022/01/22 09:31:34;;;;;;;60.22;31.17;;;77.40;1920.00;;;;;;5076121;28;20031;-64
2022/01/22 09:34:00;;;;;;;43.20;23.52;;;77.40;1920.00;;;;;;5076366;28;20021;-63
2022/01/22 09:36:28;;;;;;;37.83;20.77;;;77.40;1920.00;;;;;;5076081;28;20021;-62
2022/01/22 09:38:55;;;;;;;30.75;15.88;;;77.50;1945.60;;;;;;5076310;28;20032;-67
2022/01/22 09:41:24;;;;;;;26.73;14.27;;;77.50;1945.60;;;;;;5075921;28;20405;-63
2022/01/22 09:43:51;;;;;;;35.83;16.77;;;77.40;1894.40;;;;;;5075906;28;20024;-64
2022/01/22 09:46:19;;;;;;;38.28;19.50;;;77.20;1920.00;;;;;;5075946;28;20082;-64
2022/01/22 09:48:46;;;;;;;29.60;17.73;;;77.10;1996.80;;;;;;5075940;28;20020;-71
2022/01/22 09:51:13;;;;;;;42.47;24.13;;;77.10;1996.80;;;;;;5076397;28;20025;-64
2022/01/22 09:53:40;;;;;;;61.97;32.03;;;77.00;1945.60;;;;;;5076037;28;20037;-68
2022/01/22 09:56:06;;;;;;;52.45;28.45;;;77.00;1971.20;;;;;;5075639;28;20028;-72
2022/01/22 09:58:32;;;;;;;79.53;42.35;;;76.90;1971.20;;;;;;5075753;28;20394;-67
2022/01/22 10:01:30;;;;;;;99.35;44.20;;;76.80;1971.20;;;;;;5074986;28;20020;-68
2022/01/22 10:04:01;;;;;;;122.70;56.95;;;76.90;1996.80;;;;;;5075766;28;20103;-64
2022/01/22 10:06:31;;;;;;;115.13;54.95;;;77.00;1996.80;;;;;;5075581;28;20033;-64
2022/01/22 10:09:13;;;;;;;115.25;56.10;;;77.10;1971.20;;;;;;5075711;28;20066;-63
2022/01/22 10:11:40;;;;;;;104.60;49.92;;;77.10;2022.40;;;;;;5075615;28;20045;-64
2022/01/22 10:14:07;;;;;;;104.30;51.60;;;77.20;2124.80;;;;;;5075320;28;20025;-64
2022/01/22 10:16:35;;;;;;;87.53;44.40;;;77.30;2201.60;;;;;;5075711;28;20095;-64
2022/01/22 10:19:21;;;;;;;68.75;33.85;;;77.40;2227.20;;;;;;5075196;28;20020;-64
2022/01/22 10:21:57;;;;;;;59.92;29.75;;;77.50;2124.80;;;;;;5075404;28;20020;-69
2022/01/22 10:24:26;;;;;;;59.70;33.47;;;77.40;2022.40;;;;;;5075460;28;20096;-64
2022/01/22 10:27:12;;;;;;;64.50;36.08;;;77.50;1971.20;;;;;;5075076;28;20032;-65
2022/01/22 10:29:47;;;;;;;52.25;26.85;;;77.40;2048.00;;;;;;5074935;28;20043;-64
2022/01/22 10:32:34;;;;;;;38.53;20.85;;;77.50;2048.00;;;;;;5075284;28;20103;-66
2022/01/22 10:35:27;;;;;;;60.28;23.05;;;77.60;1996.80;;;;;;5075032;28;20032;-65
2022/01/22 10:37:55;;;;;;;75.43;34.78;;;77.50;2048.00;;;;;;5073833;28;20120;-64
2022/01/22 10:40:30;;;;;;;104.72;48.78;;;77.60;1971.20;;;;;;5075177;28;20107;-70
2022/01/22 10:43:41;;;;;;;100.25;49.38;;;77.50;2022.40;;;;;;5075099;28;20044;-62
2022/01/22 10:46:13;;;;;;;89.93;47.13;;;77.50;2022.40;;;;;;5074918;28;20036;-66
2022/01/22 10:48:42;;;;;;;224.88;99.50;;;77.60;1945.60;;;;;;5074847;28;20108;-65
2022/01/22 10:51:15;;;;;;;177.27;80.93;;;77.50;2022.40;;;;;;5075033;28;20024;-64
2022/01/22 10:53:45;;;;;;;150.80;72.97;;;77.60;1971.20;;;;;;5074859;28;20074;-66
2022/01/22 10:56:14;;;;;;;127.45;64.03;;;77.40;1996.80;;;;;;5074442;28;20063;-63
2022/01/22 10:59:06;;;;;;;108.97;49.72;;;77.40;2048.00;;;;;;5074315;28;20043;-62
2022/01/22 11:01:48;;;;;;;101.22;46.88;;;77.50;1996.80;;;;;;5074680;28;20429;-63
2022/01/22 11:04:25;;;;;;;77.18;39.63;;;77.50;2022.40;;;;;;5074566;28;20425;-64
2022/01/22 11:07:03;;;;;;;60.30;31.67;;;77.60;2048.00;;;;;;5074393;28;20029;-64
2022/01/22 11:09:31;;;;;;;58.40;30.52;;;77.60;2022.40;;;;;;5074459;28;20066;-64
2022/01/22 11:11:58;;;;;;;381.25;189.63;;;77.60;2022.40;;;;;;5073158;28;20028;-71
2022/01/22 11:14:26;;;;;;;280.67;145.32;;;102.50;2227.20;;;;;;5074398;28;20107;-79
2022/01/22 11:16:53;;;;;;;331.23;177.70;;;103.10;2227.20;;;;;;5074409;28;20032;-74
2022/01/22 11:19:21;;;;;;;320.90;169.75;;;128.10;2252.80;;;;;;5073937;28;20420;-74
2022/01/22 11:21:52;;;;;;;358.33;206.23;;;128.50;2252.80;;;;;;5074251;28;20031;-75
2022/01/22 11:24:25;;;;;;;211.90;120.32;;;128.70;2048.00;;;;;;5074222;28;20075;-63
2022/01/22 11:26:58;;;;;;;406.20;196.93;;;128.50;1996.80;;;;;;5073580;28;20481;-62
2022/01/22 11:29:56;;;;;;;435.58;219.13;;;128.30;1971.20;;;;;;5058828;28;20406;-62
2022/01/22 11:32:32;;;;;;;225.23;122.55;;;128.00;1971.20;;;;;;5061391;28;20037;-62
2022/01/22 11:35:01;;;;;;;160.73;107.30;;;128.00;1996.80;;;;;;5053921;28;20458;-62
2022/01/22 11:37:32;;;;;;;123.43;75.47;;;128.00;1996.80;;;;;;5053926;28;20033;-62
2022/01/22 11:40:13;;;;;;;103.13;64.32;;;103.30;1945.60;;;;;;5053927;28;20025;-63
2022/01/22 11:43:04;;;;;;;72.10;45.05;;;103.30;1971.20;;;;;;5052430;28;20037;-63
2022/01/22 11:45:35;;;;;;;60.25;34.92;;;103.30;1971.20;;;;;;5061229;28;20046;-65
2022/01/22 11:48:21;;;;;;;39.03;25.10;;;103.30;1945.60;;;;;;5073915;28;20028;-65
2022/01/22 11:50:49;;;;;;;42.83;25.02;;;103.30;1996.80;;;;;;5058728;28;20067;-65
2022/01/22 11:53:33;;;;;;;42.17;25.08;;;103.30;1971.20;;;;;;5053673;28;20025;-65
2022/01/22 11:56:11;;;;;;;38.13;23.13;;;103.20;1945.60;;;;;;5054016;28;20052;-65
2022/01/22 11:58:55;;;;;;;38.25;23.27;;;103.20;1971.20;;;;;;5053351;28;20045;-65
2022/01/22 12:01:45;;;;;;;40.13;23.45;;;103.20;1996.80;;;;;;5053675;28;20379;-65
2022/01/22 12:04:14;;;;;;;38.55;21.27;;;103.20;1971.20;;;;;;5053746;28;20028;-65
2022/01/22 12:07:00;;;;;;;34.97;21.92;;;103.10;1971.20;;;;;;5052361;28;20037;-65
2022/01/22 12:09:29;;;;;;;35.33;23.90;;;103.10;1996.80;;;;;;5053194;28;20021;-65
2022/01/22 12:14:54;;;;;;;41.55;26.40;;;103.10;1945.60;;;;;;5053744;28;20036;-65
2022/01/22 12:23:05;;;;;;;44.00;26.05;;;103.10;1996.80;;;;;;5053787;28;20025;-65
2022/01/22 12:25:31;;;;;;;52.58;29.15;;;103.20;1996.80;;;;;;5057164;28;20167;-65
2022/01/22 12:27:58;;;;;;;44.63;26.08;;;103.10;1945.60;;;;;;5057447;28;20063;-65
2022/01/22 12:30:38;;;;;;;46.10;28.60;;;103.20;1945.60;;;;;;5057375;28;20024;-65
2022/01/22 12:33:09;;;;;;;44.97;25.15;;;103.20;1996.80;;;;;;5057351;28;20021;-65
2022/01/22 12:35:38;;;;;;;43.95;22.88;;;103.30;1971.20;;;;;;5057152;28;20376;-65
2022/01/22 12:38:24;;;;;;;37.40;19.88;;;103.30;1945.60;;;;;;5057277;28;20025;-65
2022/01/22 12:40:54;;;;;;;31.67;18.02;;;103.30;1945.60;;;;;;5056769;28;20032;-64
2022/01/22 12:43:29;;;;;;;38.20;20.63;;;103.30;1971.20;;;;;;5057171;28;20013;-65
2022/01/22 12:46:00;;;;;;;31.65;17.83;;;103.30;1971.20;;;;;;5056933;28;20051;-65
2022/01/22 12:48:31;;;;;;;41.53;22.67;;;103.30;1920.00;;;;;;5057006;28;20107;-65
2022/01/22 12:51:05;;;;;;;47.75;25.13;;;103.30;1920.00;;;;;;5056619;28;20046;-64
2022/01/22 12:53:32;;;;;;;54.33;30.55;;;128.00;1971.20;;;;;;5057049;28;20148;-65
2022/01/22 12:58:30;;;;;;;45.13;25.10;;;103.30;1920.00;;;;;;5056358;28;20120;-62
2022/01/22 13:01:17;;;;;;;67.13;35.25;;;128.00;1971.20;;;;;;5056840;28;20032;-64
2022/01/22 13:03:45;;;;;;;82.10;37.40;;;128.00;1971.20;;;;;;5061680;28;20149;-65
2022/01/22 13:06:12;;;;;;;78.25;34.90;;;128.00;1971.20;;;;;;5065641;28;20127;-66
2022/01/22 13:08:38;;;;;;;106.90;48.45;;;128.00;1971.20;;;;;;5064072;28;20486;-66
2022/01/22 13:11:07;;;;;;;151.80;79.07;;;128.00;1971.20;;;;;;5067120;28;20429;-65
2022/01/22 13:13:38;;;;;;;118.57;60.28;;;128.10;1945.60;;;;;;5076062;28;20021;-66
2022/01/22 13:16:10;;;;;;;97.43;52.70;;;128.00;1945.60;;;;;;5064953;28;20056;-66
2022/01/22 13:18:42;;;;;;;158.80;87.30;;;128.10;1945.60;;;;;;5065541;28;20104;-66
2022/01/22 13:21:09;;;;;;;333.85;154.15;;;128.10;1945.60;;;;;;5063031;28;20048;-66
2022/01/22 13:23:35;;;;;;;350.92;190.88;;;128.20;1971.20;;;;;;5064064;28;20070;-66
2022/01/22 13:26:01;;;;;;;216.50;113.40;;;128.20;2022.40;;;;;;5065727;28;20063;-66
2022/01/22 13:28:33;;;;;;;139.65;76.88;;;128.30;1996.80;;;;;;5063929;28;20024;-66
2022/01/22 13:31:05;;;;;;;95.90;53.60;;;128.20;1971.20;;;;;;5070376;28;20020;-65
2022/01/22 13:49:52;;;;;;;86.63;44.63;;;128.20;1971.20;;;;;;5034102;28;20530;-67
2022/01/22 13:52:21;;;;;;;225.57;111.38;;;128.20;1971.20;;;;;;5033801;28;20041;-66
2022/01/22 13:54:52;;;;;;;279.38;134.50;;;128.20;1945.60;;;;;;5033843;28;20411;-66
2022/01/22 13:57:23;;;;;;;254.77;128.18;;;128.10;1945.60;;;;;;5035876;28;20044;-66
2022/01/22 13:59:56;;;;;;;183.05;93.28;;;128.00;1945.60;;;;;;5040156;28;20076;-66
2022/01/22 14:04:52;;;;;;;75.03;41.78;;;128.00;1920.00;;;;;;5042866;28;20075;-65
2022/01/22 14:07:33;;;;;;;70.18;38.88;;;128.00;1945.60;;;;;;5034460;28;20076;-65
2022/01/22 14:10:07;;;;;;;55.40;31.65;;;128.00;1971.20;;;;;;5040200;28;20068;-65
2022/01/22 14:12:45;;;;;;;51.38;30.10;;;128.00;1945.60;;;;;;5047300;28;20120;-65
2022/01/22 14:15:30;;;;;;;46.13;26.23;;;103.30;1920.00;;;;;;5023063;28;20491;-65
2022/01/22 14:20:36;;;;;;;56.40;27.73;;;103.30;1920.00;;;;;;5035290;28;19912;-66